sensor_id;sensor_type;location;lat;lon;timestamp;P1;durP1;ratioP1;P2;durP2;ratioP2
51438;SDS011;38816;51.142;-0.974;2023-12-14T00:01:57;123.40;;;114.90;;
51438;SDS011;38816;51.142;-0.974;2023-12-14T00:04:22;124.45;;;115.78;;
51438;SDS011;38816;51.142;-0.974;2023-12-14T00:06:48;134.05;;;124.90;;
51438;SDS011;38816;51.142;-0.974;2023-12-14T00:09:13;129.93;;;121.03;;
51438;SDS011;38816;51.142;-0.974;2023-12-14T00:11:39;132.23;;;122.97;;
51438;SDS011;38816;51.142;-0.974;2023-12-14T00:14:05;115.50;;;107.57;;
51438;SDS011;38816;51.142;-0.974;2023-12-14T00:16:30;132.05;;;122.78;;
51438;SDS011;38816;51.142;-0.974;2023-12-14T00:18:59;129.57;;;120.80;;
51438;SDS011;38816;51.142;-0.974;2023-12-14T00:21:24;134.85;;;125.25;;
51438;SDS011;38816;51.142;-0.974;2023-12-14T00:23:50;139.15;;;129.50;;
51438;SDS011;38816;51.142;-0.974;2023-12-14T00:26:16;131.98;;;122.53;;
51438;SDS011;38816;51.142;-0.974;2023-12-14T00:28:42;128.50;;;119.70;;
51438;SDS011;38816;51.142;-0.974;2023-12-14T00:31:08;125.32;;;116.95;;
51438;SDS011;38816;51.142;-0.974;2023-12-14T00:33:33;125.28;;;116.72;;
51438;SDS011;38816;51.142;-0.974;2023-12-14T00:35:59;131.27;;;122.18;;
51438;SDS011;38816;51.142;-0.974;2023-12-14T00:38:24;134.07;;;124.60;;
51438;SDS011;38816;51.142;-0.974;2023-12-14T00:40:50;129.80;;;120.93;;
51438;SDS011;38816;51.142;-0.974;2023-12-14T00:43:15;142.40;;;132.68;;
51438;SDS011;38816;51.142;-0.974;2023-12-14T00:45:41;139.15;;;129.57;;
51438;SDS011;38816;51.142;-0.974;2023-12-14T00:48:06;136.23;;;127.03;;
51438;SDS011;38816;51.142;-0.974;2023-12-14T00:50:32;146.95;;;136.68;;
51438;SDS011;38816;51.142;-0.974;2023-12-14T00:52:57;144.88;;;135.13;;
51438;SDS011;38816;51.142;-0.974;2023-12-14T00:55:23;144.25;;;133.23;;
51438;SDS011;38816;51.142;-0.974;2023-12-14T00:57:49;131.13;;;122.05;;
51438;SDS011;38816;51.142;-0.974;2023-12-14T01:00:14;139.18;;;129.38;;
51438;SDS011;38816;51.142;-0.974;2023-12-14T01:02:40;132.52;;;123.50;;
51438;SDS011;38816;51.142;-0.974;2023-12-14T01:05:06;142.45;;;132.73;;
51438;SDS011;38816;51.142;-0.974;2023-12-14T01:07:32;142.48;;;132.43;;
51438;SDS011;38816;51.142;-0.974;2023-12-14T01:09:57;130.65;;;121.85;;
51438;SDS011;38816;51.142;-0.974;2023-12-14T01:12:22;132.18;;;123.20;;
51438;SDS011;38816;51.142;-0.974;2023-12-14T01:14:48;144.23;;;134.05;;
51438;SDS011;38816;51.142;-0.974;2023-12-14T01:17:14;151.90;;;141.60;;
51438;SDS011;38816;51.142;-0.974;2023-12-14T01:19:39;146.90;;;137.05;;
51438;SDS011;38816;51.142;-0.974;2023-12-14T01:22:06;146.32;;;136.15;;
51438;SDS011;38816;51.142;-0.974;2023-12-14T01:24:31;148.98;;;138.55;;
51438;SDS011;38816;51.142;-0.974;2023-12-14T01:26:57;152.65;;;142.25;;
51438;SDS011;38816;51.142;-0.974;2023-12-14T01:29:22;155.70;;;145.25;;
51438;SDS011;38816;51.142;-0.974;2023-12-14T01:31:48;149.90;;;139.60;;
51438;SDS011;38816;51.142;-0.974;2023-12-14T01:34:13;159.05;;;148.20;;
51438;SDS011;38816;51.142;-0.974;2023-12-14T01:36:40;142.98;;;133.23;;
51438;SDS011;38816;51.142;-0.974;2023-12-14T01:39:06;132.40;;;123.20;;
51438;SDS011;38816;51.142;-0.974;2023-12-14T01:41:32;122.25;;;113.43;;
51438;SDS011;38816;51.142;-0.974;2023-12-14T01:43:57;143.43;;;132.88;;
51438;SDS011;38816;51.142;-0.974;2023-12-14T01:46:22;131.85;;;122.95;;
51438;SDS011;38816;51.142;-0.974;2023-12-14T01:48:48;127.22;;;118.30;;
51438;SDS011;38816;51.142;-0.974;2023-12-14T01:51:16;123.32;;;114.10;;
51438;SDS011;38816;51.142;-0.974;2023-12-14T01:53:42;137.68;;;128.13;;
51438;SDS011;38816;51.142;-0.974;2023-12-14T01:56:07;137.20;;;127.70;;
51438;SDS011;38816;51.142;-0.974;2023-12-14T01:58:33;138.10;;;128.38;;
51438;SDS011;38816;51.142;-0.974;2023-12-14T02:03:29;135.65;;;126.03;;
51438;SDS011;38816;51.142;-0.974;2023-12-14T02:05:55;134.82;;;125.30;;
51438;SDS011;38816;51.142;-0.974;2023-12-14T02:08:22;156.93;;;146.25;;
51438;SDS011;38816;51.142;-0.974;2023-12-14T02:10:49;144.77;;;134.98;;
51438;SDS011;38816;51.142;-0.974;2023-12-14T02:13:14;130.82;;;121.88;;
51438;SDS011;38816;51.142;-0.974;2023-12-14T02:15:39;139.32;;;129.75;;
51438;SDS011;38816;51.142;-0.974;2023-12-14T02:18:05;155.55;;;144.95;;
51438;SDS011;38816;51.142;-0.974;2023-12-14T02:20:31;138.57;;;128.93;;
51438;SDS011;38816;51.142;-0.974;2023-12-14T02:22:56;147.27;;;136.75;;
51438;SDS011;38816;51.142;-0.974;2023-12-14T02:25:23;141.52;;;131.52;;
51438;SDS011;38816;51.142;-0.974;2023-12-14T02:27:49;126.07;;;117.40;;
51438;SDS011;38816;51.142;-0.974;2023-12-14T02:30:17;128.48;;;119.20;;
51438;SDS011;38816;51.142;-0.974;2023-12-14T02:32:42;131.13;;;121.60;;
51438;SDS011;38816;51.142;-0.974;2023-12-14T02:35:09;136.52;;;126.72;;
51438;SDS011;38816;51.142;-0.974;2023-12-14T02:37:35;131.85;;;122.18;;
51438;SDS011;38816;51.142;-0.974;2023-12-14T02:40:07;127.10;;;118.33;;
51438;SDS011;38816;51.142;-0.974;2023-12-14T02:42:33;131.80;;;122.10;;
51438;SDS011;38816;51.142;-0.974;2023-12-14T02:44:59;145.05;;;134.82;;
51438;SDS011;38816;51.142;-0.974;2023-12-14T02:47:29;135.88;;;125.53;;
51438;SDS011;38816;51.142;-0.974;2023-12-14T02:49:55;138.82;;;128.95;;
51438;SDS011;38816;51.142;-0.974;2023-12-14T02:52:21;125.38;;;116.55;;
51438;SDS011;38816;51.142;-0.974;2023-12-14T02:54:47;128.93;;;119.70;;
51438;SDS011;38816;51.142;-0.974;2023-12-14T02:57:13;111.95;;;103.53;;
51438;SDS011;38816;51.142;-0.974;2023-12-14T02:59:41;142.15;;;131.93;;
51438;SDS011;38816;51.142;-0.974;2023-12-14T03:02:06;116.75;;;108.68;;
51438;SDS011;38816;51.142;-0.974;2023-12-14T03:04:32;113.30;;;105.47;;
51438;SDS011;38816;51.142;-0.974;2023-12-14T03:07:00;102.30;;;94.38;;
51438;SDS011;38816;51.142;-0.974;2023-12-14T03:09:30;121.07;;;112.85;;
51438;SDS011;38816;51.142;-0.974;2023-12-14T03:11:55;129.93;;;120.47;;
51438;SDS011;38816;51.142;-0.974;2023-12-14T03:14:21;126.10;;;117.30;;
51438;SDS011;38816;51.142;-0.974;2023-12-14T03:16:47;133.70;;;124.03;;
51438;SDS011;38816;51.142;-0.974;2023-12-14T03:19:14;108.28;;;99.82;;
51438;SDS011;38816;51.142;-0.974;2023-12-14T03:21:41;99.70;;;92.60;;
51438;SDS011;38816;51.142;-0.974;2023-12-14T03:24:06;108.85;;;100.80;;
51438;SDS011;38816;51.142;-0.974;2023-12-14T03:26:32;78.40;;;72.72;;
51438;SDS011;38816;51.142;-0.974;2023-12-14T03:28:57;82.07;;;76.03;;
51438;SDS011;38816;51.142;-0.974;2023-12-14T03:31:23;69.93;;;65.00;;
51438;SDS011;38816;51.142;-0.974;2023-12-14T03:33:48;66.22;;;61.22;;
51438;SDS011;38816;51.142;-0.974;2023-12-14T03:36:14;67.43;;;62.53;;
51438;SDS011;38816;51.142;-0.974;2023-12-14T03:38:39;72.63;;;67.13;;
51438;SDS011;38816;51.142;-0.974;2023-12-14T03:41:05;56.90;;;52.78;;
51438;SDS011;38816;51.142;-0.974;2023-12-14T03:43:30;49.15;;;45.05;;
51438;SDS011;38816;51.142;-0.974;2023-12-14T03:45:56;61.70;;;57.03;;
51438;SDS011;38816;51.142;-0.974;2023-12-14T03:48:21;46.65;;;42.88;;
51438;SDS011;38816;51.142;-0.974;2023-12-14T03:50:47;70.07;;;63.90;;
51438;SDS011;38816;51.142;-0.974;2023-12-14T03:53:12;49.80;;;46.00;;
51438;SDS011;38816;51.142;-0.974;2023-12-14T03:55:38;41.95;;;38.22;;
51438;SDS011;38816;51.142;-0.974;2023-12-14T03:58:03;61.55;;;56.58;;
51438;SDS011;38816;51.142;-0.974;2023-12-14T04:00:29;53.80;;;49.50;;
51438;SDS011;38816;51.142;-0.974;2023-12-14T04:02:54;52.65;;;48.22;;
51438;SDS011;38816;51.142;-0.974;2023-12-14T04:05:20;32.50;;;29.80;;
51438;SDS011;38816;51.142;-0.974;2023-12-14T04:07:45;70.38;;;65.07;;
51438;SDS011;38816;51.142;-0.974;2023-12-14T04:10:12;36.05;;;32.72;;
51438;SDS011;38816;51.142;-0.974;2023-12-14T04:12:38;39.08;;;35.25;;
51438;SDS011;38816;51.142;-0.974;2023-12-14T04:15:04;34.08;;;31.42;;
51438;SDS011;38816;51.142;-0.974;2023-12-14T04:17:35;33.15;;;30.35;;
51438;SDS011;38816;51.142;-0.974;2023-12-14T04:20:01;44.28;;;40.95;;
51438;SDS011;38816;51.142;-0.974;2023-12-14T04:22:28;37.88;;;35.05;;
51438;SDS011;38816;51.142;-0.974;2023-12-14T04:24:54;34.08;;;30.77;;
51438;SDS011;38816;51.142;-0.974;2023-12-14T04:27:20;32.00;;;29.35;;
51438;SDS011;38816;51.142;-0.974;2023-12-14T04:29:52;48.63;;;44.40;;
51438;SDS011;38816;51.142;-0.974;2023-12-14T04:32:17;62.83;;;58.15;;
51438;SDS011;38816;51.142;-0.974;2023-12-14T04:34:43;54.08;;;50.00;;
51438;SDS011;38816;51.142;-0.974;2023-12-14T04:37:09;58.20;;;53.63;;
51438;SDS011;38816;51.142;-0.974;2023-12-14T04:39:34;75.10;;;69.40;;
51438;SDS011;38816;51.142;-0.974;2023-12-14T04:42:00;86.50;;;80.25;;
51438;SDS011;38816;51.142;-0.974;2023-12-14T04:44:25;73.32;;;67.88;;
51438;SDS011;38816;51.142;-0.974;2023-12-14T04:46:51;74.53;;;69.07;;
51438;SDS011;38816;51.142;-0.974;2023-12-14T04:49:18;83.55;;;77.35;;
51438;SDS011;38816;51.142;-0.974;2023-12-14T04:51:44;75.38;;;70.13;;
51438;SDS011;38816;51.142;-0.974;2023-12-14T04:54:10;91.93;;;85.53;;
51438;SDS011;38816;51.142;-0.974;2023-12-14T04:56:35;95.07;;;87.53;;
51438;SDS011;38816;51.142;-0.974;2023-12-14T04:59:01;100.50;;;92.93;;
51438;SDS011;38816;51.142;-0.974;2023-12-14T05:01:27;87.22;;;80.95;;
51438;SDS011;38816;51.142;-0.974;2023-12-14T05:03:52;71.32;;;65.32;;
51438;SDS011;38816;51.142;-0.974;2023-12-14T05:06:18;63.50;;;58.65;;
51438;SDS011;38816;51.142;-0.974;2023-12-14T05:08:44;76.75;;;70.25;;
51438;SDS011;38816;51.142;-0.974;2023-12-14T05:11:10;87.43;;;80.88;;
51438;SDS011;38816;51.142;-0.974;2023-12-14T05:13:37;82.32;;;76.50;;
51438;SDS011;38816;51.142;-0.974;2023-12-14T05:16:03;84.80;;;78.57;;
51438;SDS011;38816;51.142;-0.974;2023-12-14T05:18:28;94.07;;;87.13;;
51438;SDS011;38816;51.142;-0.974;2023-12-14T05:20:54;100.55;;;93.20;;
51438;SDS011;38816;51.142;-0.974;2023-12-14T05:23:20;95.57;;;88.47;;
51438;SDS011;38816;51.142;-0.974;2023-12-14T05:25:45;77.80;;;71.78;;
51438;SDS011;38816;51.142;-0.974;2023-12-14T05:28:11;92.70;;;85.72;;
51438;SDS011;38816;51.142;-0.974;2023-12-14T05:30:36;94.65;;;87.85;;
51438;SDS011;38816;51.142;-0.974;2023-12-14T05:33:02;89.15;;;82.57;;
51438;SDS011;38816;51.142;-0.974;2023-12-14T05:35:27;96.20;;;89.20;;
51438;SDS011;38816;51.142;-0.974;2023-12-14T05:37:53;92.47;;;85.90;;
51438;SDS011;38816;51.142;-0.974;2023-12-14T05:40:18;80.00;;;74.00;;
51438;SDS011;38816;51.142;-0.974;2023-12-14T05:42:44;81.75;;;75.90;;
51438;SDS011;38816;51.142;-0.974;2023-12-14T05:45:10;73.70;;;68.38;;
51438;SDS011;38816;51.142;-0.974;2023-12-14T05:47:35;77.13;;;71.65;;
51438;SDS011;38816;51.142;-0.974;2023-12-14T05:50:02;63.88;;;59.00;;
51438;SDS011;38816;51.142;-0.974;2023-12-14T05:52:28;68.78;;;63.88;;
51438;SDS011;38816;51.142;-0.974;2023-12-14T05:54:54;65.05;;;59.63;;
51438;SDS011;38816;51.142;-0.974;2023-12-14T05:57:19;61.35;;;56.35;;
51438;SDS011;38816;51.142;-0.974;2023-12-14T05:59:45;68.00;;;62.70;;
51438;SDS011;38816;51.142;-0.974;2023-12-14T06:02:10;56.65;;;52.22;;
51438;SDS011;38816;51.142;-0.974;2023-12-14T06:04:36;61.28;;;56.72;;
51438;SDS011;38816;51.142;-0.974;2023-12-14T06:07:01;46.88;;;43.17;;
51438;SDS011;38816;51.142;-0.974;2023-12-14T06:09:27;51.08;;;46.88;;
51438;SDS011;38816;51.142;-0.974;2023-12-14T06:12:02;39.88;;;36.05;;
51438;SDS011;38816;51.142;-0.974;2023-12-14T06:14:29;47.95;;;43.63;;
51438;SDS011;38816;51.142;-0.974;2023-12-14T06:16:55;58.45;;;53.83;;
51438;SDS011;38816;51.142;-0.974;2023-12-14T06:19:20;42.40;;;38.97;;
51438;SDS011;38816;51.142;-0.974;2023-12-14T06:21:46;48.00;;;43.92;;
51438;SDS011;38816;51.142;-0.974;2023-12-14T06:24:12;56.50;;;52.10;;
51438;SDS011;38816;51.142;-0.974;2023-12-14T06:26:46;47.17;;;43.22;;
51438;SDS011;38816;51.142;-0.974;2023-12-14T06:29:15;50.40;;;46.17;;
51438;SDS011;38816;51.142;-0.974;2023-12-14T06:31:40;40.38;;;37.08;;
51438;SDS011;38816;51.142;-0.974;2023-12-14T06:34:06;41.88;;;37.85;;
51438;SDS011;38816;51.142;-0.974;2023-12-14T06:36:32;44.95;;;41.25;;
51438;SDS011;38816;51.142;-0.974;2023-12-14T06:39:01;38.50;;;35.35;;
51438;SDS011;38816;51.142;-0.974;2023-12-14T06:41:28;42.20;;;38.90;;
51438;SDS011;38816;51.142;-0.974;2023-12-14T06:43:53;38.42;;;34.85;;
51438;SDS011;38816;51.142;-0.974;2023-12-14T06:46:20;34.25;;;31.13;;
51438;SDS011;38816;51.142;-0.974;2023-12-14T06:48:46;39.95;;;36.38;;
51438;SDS011;38816;51.142;-0.974;2023-12-14T06:51:12;39.97;;;36.38;;
51438;SDS011;38816;51.142;-0.974;2023-12-14T06:53:41;36.83;;;33.03;;
51438;SDS011;38816;51.142;-0.974;2023-12-14T06:56:08;46.17;;;42.53;;
51438;SDS011;38816;51.142;-0.974;2023-12-14T06:58:43;40.20;;;36.28;;
51438;SDS011;38816;51.142;-0.974;2023-12-14T07:01:15;38.28;;;34.92;;
51438;SDS011;38816;51.142;-0.974;2023-12-14T07:03:41;39.17;;;35.92;;
51438;SDS011;38816;51.142;-0.974;2023-12-14T07:06:11;39.20;;;35.70;;
51438;SDS011;38816;51.142;-0.974;2023-12-14T07:08:38;34.92;;;31.67;;
51438;SDS011;38816;51.142;-0.974;2023-12-14T07:11:06;36.25;;;33.30;;
51438;SDS011;38816;51.142;-0.974;2023-12-14T07:13:35;34.38;;;30.77;;
51438;SDS011;38816;51.142;-0.974;2023-12-14T07:16:08;32.25;;;29.63;;
51438;SDS011;38816;51.142;-0.974;2023-12-14T07:18:38;29.52;;;26.40;;
51438;SDS011;38816;51.142;-0.974;2023-12-14T07:21:05;30.70;;;27.90;;
51438;SDS011;38816;51.142;-0.974;2023-12-14T07:23:31;29.08;;;26.73;;
51438;SDS011;38816;51.142;-0.974;2023-12-14T07:25:58;33.17;;;30.13;;
51438;SDS011;38816;51.142;-0.974;2023-12-14T07:28:23;35.53;;;32.10;;
51438;SDS011;38816;51.142;-0.974;2023-12-14T07:30:49;29.17;;;26.50;;
51438;SDS011;38816;51.142;-0.974;2023-12-14T07:33:14;32.63;;;29.88;;
51438;SDS011;38816;51.142;-0.974;2023-12-14T07:35:41;26.77;;;24.50;;
51438;SDS011;38816;51.142;-0.974;2023-12-14T07:38:06;30.60;;;27.40;;
51438;SDS011;38816;51.142;-0.974;2023-12-14T07:40:32;31.83;;;29.02;;
51438;SDS011;38816;51.142;-0.974;2023-12-14T07:42:57;27.95;;;25.50;;
51438;SDS011;38816;51.142;-0.974;2023-12-14T07:45:23;32.40;;;29.45;;
51438;SDS011;38816;51.142;-0.974;2023-12-14T07:47:48;28.98;;;26.35;;
51438;SDS011;38816;51.142;-0.974;2023-12-14T07:50:14;30.48;;;27.88;;
51438;SDS011;38816;51.142;-0.974;2023-12-14T07:52:40;25.42;;;22.45;;
51438;SDS011;38816;51.142;-0.974;2023-12-14T07:55:06;27.30;;;25.10;;
51438;SDS011;38816;51.142;-0.974;2023-12-14T07:57:32;25.23;;;21.67;;
51438;SDS011;38816;51.142;-0.974;2023-12-14T07:59:57;30.05;;;27.63;;
51438;SDS011;38816;51.142;-0.974;2023-12-14T08:02:23;26.80;;;24.17;;
51438;SDS011;38816;51.142;-0.974;2023-12-14T08:04:48;23.33;;;21.00;;
51438;SDS011;38816;51.142;-0.974;2023-12-14T08:07:14;26.13;;;23.50;;
51438;SDS011;38816;51.142;-0.974;2023-12-14T08:09:40;25.08;;;23.25;;
51438;SDS011;38816;51.142;-0.974;2023-12-14T08:12:05;25.48;;;23.05;;
51438;SDS011;38816;51.142;-0.974;2023-12-14T08:14:34;25.02;;;22.38;;
51438;SDS011;38816;51.142;-0.974;2023-12-14T08:17:01;25.92;;;23.60;;
51438;SDS011;38816;51.142;-0.974;2023-12-14T08:19:26;23.85;;;21.20;;
51438;SDS011;38816;51.142;-0.974;2023-12-14T08:21:52;25.75;;;22.73;;
51438;SDS011;38816;51.142;-0.974;2023-12-14T08:24:18;22.50;;;20.52;;
51438;SDS011;38816;51.142;-0.974;2023-12-14T08:26:43;21.15;;;19.35;;
51438;SDS011;38816;51.142;-0.974;2023-12-14T08:29:09;27.63;;;24.92;;
51438;SDS011;38816;51.142;-0.974;2023-12-14T08:31:34;21.13;;;19.15;;
51438;SDS011;38816;51.142;-0.974;2023-12-14T08:34:00;23.05;;;20.80;;
51438;SDS011;38816;51.142;-0.974;2023-12-14T08:36:29;25.63;;;23.20;;
51438;SDS011;38816;51.142;-0.974;2023-12-14T08:38:55;21.40;;;19.15;;
51438;SDS011;38816;51.142;-0.974;2023-12-14T08:41:21;20.05;;;17.92;;
51438;SDS011;38816;51.142;-0.974;2023-12-14T08:43:46;26.95;;;24.20;;
51438;SDS011;38816;51.142;-0.974;2023-12-14T08:46:12;25.45;;;22.00;;
51438;SDS011;38816;51.142;-0.974;2023-12-14T08:48:38;26.33;;;23.88;;
51438;SDS011;38816;51.142;-0.974;2023-12-14T08:51:03;27.40;;;24.67;;
51438;SDS011;38816;51.142;-0.974;2023-12-14T08:53:29;25.77;;;23.45;;
51438;SDS011;38816;51.142;-0.974;2023-12-14T08:55:55;29.02;;;26.73;;
51438;SDS011;38816;51.142;-0.974;2023-12-14T08:58:21;26.65;;;24.00;;
51438;SDS011;38816;51.142;-0.974;2023-12-14T09:00:46;29.80;;;27.05;;
51438;SDS011;38816;51.142;-0.974;2023-12-14T09:03:12;27.67;;;25.25;;
51438;SDS011;38816;51.142;-0.974;2023-12-14T09:05:38;27.48;;;25.02;;
51438;SDS011;38816;51.142;-0.974;2023-12-14T09:08:07;29.80;;;27.25;;
51438;SDS011;38816;51.142;-0.974;2023-12-14T09:10:32;25.02;;;22.60;;
51438;SDS011;38816;51.142;-0.974;2023-12-14T09:12:58;29.20;;;26.92;;
51438;SDS011;38816;51.142;-0.974;2023-12-14T09:15:25;30.85;;;28.15;;
51438;SDS011;38816;51.142;-0.974;2023-12-14T09:17:50;30.65;;;28.08;;
51438;SDS011;38816;51.142;-0.974;2023-12-14T09:20:16;28.73;;;26.33;;
51438;SDS011;38816;51.142;-0.974;2023-12-14T09:22:42;44.78;;;41.50;;
51438;SDS011;38816;51.142;-0.974;2023-12-14T09:25:07;36.75;;;33.30;;
51438;SDS011;38816;51.142;-0.974;2023-12-14T09:27:34;38.40;;;34.97;;
51438;SDS011;38816;51.142;-0.974;2023-12-14T09:29:59;39.17;;;36.17;;
51438;SDS011;38816;51.142;-0.974;2023-12-14T09:32:25;31.67;;;29.13;;
51438;SDS011;38816;51.142;-0.974;2023-12-14T09:34:51;31.58;;;29.17;;
51438;SDS011;38816;51.142;-0.974;2023-12-14T09:37:17;32.47;;;29.98;;
51438;SDS011;38816;51.142;-0.974;2023-12-14T09:39:42;30.20;;;27.83;;
51438;SDS011;38816;51.142;-0.974;2023-12-14T09:42:08;36.20;;;33.05;;
51438;SDS011;38816;51.142;-0.974;2023-12-14T09:44:34;32.08;;;29.48;;
51438;SDS011;38816;51.142;-0.974;2023-12-14T09:47:02;32.90;;;30.42;;
51438;SDS011;38816;51.142;-0.974;2023-12-14T09:49:29;32.53;;;29.77;;
51438;SDS011;38816;51.142;-0.974;2023-12-14T09:51:58;31.40;;;28.60;;
51438;SDS011;38816;51.142;-0.974;2023-12-14T09:54:25;32.65;;;30.15;;
51438;SDS011;38816;51.142;-0.974;2023-12-14T09:56:51;34.33;;;31.17;;
51438;SDS011;38816;51.142;-0.974;2023-12-14T09:59:23;29.02;;;26.48;;
51438;SDS011;38816;51.142;-0.974;2023-12-14T10:01:48;32.65;;;30.20;;
51438;SDS011;38816;51.142;-0.974;2023-12-14T10:04:14;31.67;;;29.00;;
51438;SDS011;38816;51.142;-0.974;2023-12-14T10:06:42;32.65;;;30.23;;
51438;SDS011;38816;51.142;-0.974;2023-12-14T10:09:09;35.50;;;32.67;;
51438;SDS011;38816;51.142;-0.974;2023-12-14T10:11:39;39.03;;;35.65;;
51438;SDS011;38816;51.142;-0.974;2023-12-14T10:16:47;45.45;;;42.08;;
51438;SDS011;38816;51.142;-0.974;2023-12-14T10:19:14;39.03;;;36.20;;
51438;SDS011;38816;51.142;-0.974;2023-12-14T10:21:39;42.75;;;39.33;;
51438;SDS011;38816;51.142;-0.974;2023-12-14T10:24:06;36.90;;;33.80;;
51438;SDS011;38816;51.142;-0.974;2023-12-14T10:26:31;35.97;;;33.20;;
51438;SDS011;38816;51.142;-0.974;2023-12-14T10:28:57;32.20;;;29.40;;
51438;SDS011;38816;51.142;-0.974;2023-12-14T10:31:22;30.25;;;27.70;;
51438;SDS011;38816;51.142;-0.974;2023-12-14T10:33:52;28.95;;;26.42;;
51438;SDS011;38816;51.142;-0.974;2023-12-14T10:36:18;29.13;;;26.23;;
51438;SDS011;38816;51.142;-0.974;2023-12-14T10:38:44;23.63;;;21.48;;
51438;SDS011;38816;51.142;-0.974;2023-12-14T10:41:13;26.00;;;23.55;;
51438;SDS011;38816;51.142;-0.974;2023-12-14T10:43:39;28.05;;;25.80;;
51438;SDS011;38816;51.142;-0.974;2023-12-14T10:46:06;27.80;;;25.73;;
51438;SDS011;38816;51.142;-0.974;2023-12-14T10:48:35;28.05;;;25.45;;
51438;SDS011;38816;51.142;-0.974;2023-12-14T10:51:02;28.85;;;26.42;;
51438;SDS011;38816;51.142;-0.974;2023-12-14T10:53:28;27.38;;;25.35;;
51438;SDS011;38816;51.142;-0.974;2023-12-14T10:55:54;34.30;;;31.25;;
51438;SDS011;38816;51.142;-0.974;2023-12-14T10:58:24;28.88;;;26.25;;
51438;SDS011;38816;51.142;-0.974;2023-12-14T11:00:59;25.58;;;23.63;;
51438;SDS011;38816;51.142;-0.974;2023-12-14T11:03:26;30.95;;;27.95;;
51438;SDS011;38816;51.142;-0.974;2023-12-14T11:05:52;31.60;;;28.77;;
51438;SDS011;38816;51.142;-0.974;2023-12-14T11:08:18;27.80;;;25.38;;
51438;SDS011;38816;51.142;-0.974;2023-12-14T11:10:52;27.42;;;24.92;;
51438;SDS011;38816;51.142;-0.974;2023-12-14T11:13:21;33.22;;;30.48;;
51438;SDS011;38816;51.142;-0.974;2023-12-14T11:15:49;32.42;;;29.83;;
51438;SDS011;38816;51.142;-0.974;2023-12-14T11:18:23;33.13;;;30.52;;
51438;SDS011;38816;51.142;-0.974;2023-12-14T11:20:51;31.13;;;27.85;;
51438;SDS011;38816;51.142;-0.974;2023-12-14T11:25:51;35.35;;;32.55;;
51438;SDS011;38816;51.142;-0.974;2023-12-14T11:28:18;37.55;;;34.60;;
51438;SDS011;38816;51.142;-0.974;2023-12-14T11:30:44;37.42;;;34.40;;
51438;SDS011;38816;51.142;-0.974;2023-12-14T11:33:14;36.08;;;33.15;;
51438;SDS011;38816;51.142;-0.974;2023-12-14T11:35:40;36.42;;;33.50;;
51438;SDS011;38816;51.142;-0.974;2023-12-14T11:38:06;36.85;;;34.00;;
51438;SDS011;38816;51.142;-0.974;2023-12-14T11:40:38;36.10;;;33.45;;
51438;SDS011;38816;51.142;-0.974;2023-12-14T11:43:05;36.55;;;33.47;;
51438;SDS011;38816;51.142;-0.974;2023-12-14T11:45:35;37.13;;;34.17;;
51438;SDS011;38816;51.142;-0.974;2023-12-14T11:48:02;25.90;;;23.73;;
51438;SDS011;38816;51.142;-0.974;2023-12-14T11:50:30;37.08;;;33.95;;
51438;SDS011;38816;51.142;-0.974;2023-12-14T11:53:02;37.72;;;34.47;;
51438;SDS011;38816;51.142;-0.974;2023-12-14T11:55:29;34.17;;;31.67;;
51438;SDS011;38816;51.142;-0.974;2023-12-14T11:58:01;35.40;;;32.03;;
51438;SDS011;38816;51.142;-0.974;2023-12-14T12:00:29;35.80;;;32.90;;
51438;SDS011;38816;51.142;-0.974;2023-12-14T12:03:08;39.75;;;36.22;;
51438;SDS011;38816;51.142;-0.974;2023-12-14T12:05:43;37.75;;;34.75;;
51438;SDS011;38816;51.142;-0.974;2023-12-14T12:08:11;27.48;;;25.30;;
51438;SDS011;38816;51.142;-0.974;2023-12-14T12:10:38;33.13;;;30.40;;
51438;SDS011;38816;51.142;-0.974;2023-12-14T12:13:12;19.80;;;18.05;;
51438;SDS011;38816;51.142;-0.974;2023-12-14T12:15:38;30.50;;;27.83;;
51438;SDS011;38816;51.142;-0.974;2023-12-14T12:18:07;36.58;;;33.30;;
51438;SDS011;38816;51.142;-0.974;2023-12-14T12:20:34;29.02;;;26.52;;
51438;SDS011;38816;51.142;-0.974;2023-12-14T12:23:00;26.65;;;24.42;;
51438;SDS011;38816;51.142;-0.974;2023-12-14T12:25:26;29.00;;;26.85;;
51438;SDS011;38816;51.142;-0.974;2023-12-14T12:27:53;25.98;;;24.08;;
51438;SDS011;38816;51.142;-0.974;2023-12-14T12:30:20;31.98;;;29.65;;
51438;SDS011;38816;51.142;-0.974;2023-12-14T12:32:46;30.02;;;27.67;;
51438;SDS011;38816;51.142;-0.974;2023-12-14T12:35:12;27.58;;;25.33;;
51438;SDS011;38816;51.142;-0.974;2023-12-14T12:37:38;27.83;;;25.77;;
51438;SDS011;38816;51.142;-0.974;2023-12-14T12:40:04;26.75;;;24.85;;
51438;SDS011;38816;51.142;-0.974;2023-12-14T12:42:31;26.23;;;24.27;;
51438;SDS011;38816;51.142;-0.974;2023-12-14T12:44:56;31.55;;;29.02;;
51438;SDS011;38816;51.142;-0.974;2023-12-14T12:47:22;27.58;;;25.52;;
51438;SDS011;38816;51.142;-0.974;2023-12-14T12:49:47;25.48;;;23.40;;
51438;SDS011;38816;51.142;-0.974;2023-12-14T12:52:13;28.45;;;26.02;;
51438;SDS011;38816;51.142;-0.974;2023-12-14T12:54:38;25.10;;;23.00;;
51438;SDS011;38816;51.142;-0.974;2023-12-14T12:57:05;20.88;;;19.30;;
51438;SDS011;38816;51.142;-0.974;2023-12-14T12:59:30;23.25;;;21.45;;
51438;SDS011;38816;51.142;-0.974;2023-12-14T13:01:56;20.17;;;18.13;;
51438;SDS011;38816;51.142;-0.974;2023-12-14T13:04:24;14.38;;;12.25;;
51438;SDS011;38816;51.142;-0.974;2023-12-14T13:06:51;17.83;;;16.52;;
51438;SDS011;38816;51.142;-0.974;2023-12-14T13:09:17;16.73;;;15.52;;
51438;SDS011;38816;51.142;-0.974;2023-12-14T13:11:44;16.75;;;15.52;;
51438;SDS011;38816;51.142;-0.974;2023-12-14T13:14:10;15.90;;;14.60;;
51438;SDS011;38816;51.142;-0.974;2023-12-14T13:16:36;14.23;;;12.98;;
51438;SDS011;38816;51.142;-0.974;2023-12-14T13:19:03;18.25;;;16.55;;
51438;SDS011;38816;51.142;-0.974;2023-12-14T13:21:31;19.23;;;15.70;;
51438;SDS011;38816;51.142;-0.974;2023-12-14T13:24:00;18.30;;;15.20;;
51438;SDS011;38816;51.142;-0.974;2023-12-14T13:26:27;16.00;;;13.13;;
51438;SDS011;38816;51.142;-0.974;2023-12-14T13:28:53;15.43;;;14.02;;
51438;SDS011;38816;51.142;-0.974;2023-12-14T13:31:18;13.15;;;11.82;;
51438;SDS011;38816;51.142;-0.974;2023-12-14T13:33:45;16.20;;;14.85;;
51438;SDS011;38816;51.142;-0.974;2023-12-14T13:36:11;14.60;;;13.15;;
51438;SDS011;38816;51.142;-0.974;2023-12-14T13:38:37;16.08;;;12.88;;
51438;SDS011;38816;51.142;-0.974;2023-12-14T13:41:03;14.40;;;12.32;;
51438;SDS011;38816;51.142;-0.974;2023-12-14T13:43:29;15.05;;;13.73;;
51438;SDS011;38816;51.142;-0.974;2023-12-14T13:45:54;16.52;;;13.77;;
51438;SDS011;38816;51.142;-0.974;2023-12-14T13:48:26;15.25;;;13.60;;
51438;SDS011;38816;51.142;-0.974;2023-12-14T13:50:55;15.05;;;13.73;;
51438;SDS011;38816;51.142;-0.974;2023-12-14T13:53:23;17.65;;;14.35;;
51438;SDS011;38816;51.142;-0.974;2023-12-14T13:55:49;14.57;;;13.05;;
51438;SDS011;38816;51.142;-0.974;2023-12-14T13:58:15;15.90;;;13.98;;
51438;SDS011;38816;51.142;-0.974;2023-12-14T14:00:41;18.63;;;16.70;;
51438;SDS011;38816;51.142;-0.974;2023-12-14T14:03:06;18.15;;;13.90;;
51438;SDS011;38816;51.142;-0.974;2023-12-14T14:05:33;17.63;;;15.80;;
51438;SDS011;38816;51.142;-0.974;2023-12-14T14:07:59;17.75;;;15.88;;